createdAt,value
2019-02-02T00:01:46.516Z,3.20
2019-02-02T00:04:17.533Z,3.20
2019-02-02T00:06:47.072Z,3.20
2019-02-02T00:09:16.472Z,3.30
2019-02-02T00:11:45.855Z,3.30
2019-02-02T00:14:15.218Z,3.30
2019-02-02T00:16:44.714Z,3.30
2019-02-02T00:19:14.073Z,3.30
2019-02-02T00:21:43.458Z,3.30
2019-02-02T00:24:12.822Z,3.40
2019-02-02T00:26:43.344Z,3.40
2019-02-02T00:29:12.849Z,3.40
2019-02-02T00:31:42.339Z,3.40
2019-02-02T00:34:11.747Z,3.40
2019-02-02T00:36:41.205Z,3.40
2019-02-02T00:39:11.411Z,3.40
2019-02-02T00:41:40.831Z,3.50
2019-02-02T00:44:10.189Z,3.50
2019-02-02T00:46:39.555Z,3.50
2019-02-02T00:49:10.390Z,3.50
2019-02-02T00:51:39.754Z,3.60
2019-02-02T00:54:09.378Z,3.60
2019-02-02T00:56:40.453Z,3.60
2019-02-02T00:59:09.870Z,3.70
2019-02-02T01:01:39.513Z,3.70
2019-02-02T01:04:08.988Z,3.70
2019-02-02T01:06:38.378Z,3.70
2019-02-02T01:09:17.660Z,3.70
2019-02-02T01:11:47.032Z,3.70
2019-02-02T01:14:16.539Z,3.70
2019-02-02T01:16:45.926Z,3.80
2019-02-02T01:19:15.351Z,3.80
2019-02-02T01:21:44.677Z,3.80
2019-02-02T01:24:14.048Z,3.80
2019-02-02T01:26:43.391Z,3.80
2019-02-02T01:29:12.860Z,3.80
2019-02-02T01:31:42.255Z,3.80
2019-02-02T01:34:11.860Z,3.80
2019-02-02T01:36:41.283Z,3.80
2019-02-02T01:39:13.797Z,3.80
2019-02-02T01:41:43.213Z,3.80
2019-02-02T01:44:12.531Z,3.70
2019-02-02T01:46:41.857Z,3.70
2019-02-02T01:49:11.221Z,3.70
2019-02-02T01:51:40.531Z,3.80
2019-02-02T01:54:09.960Z,3.70
2019-02-02T01:56:39.255Z,3.80
2019-02-02T01:59:08.564Z,3.80
2019-02-02T02:01:37.924Z,3.80
2019-02-02T02:04:07.267Z,3.70
2019-02-02T02:06:36.788Z,3.80
2019-02-02T02:09:08.065Z,3.70
2019-02-02T02:11:37.545Z,3.70
2019-02-02T02:14:07.088Z,3.70
2019-02-02T02:16:36.509Z,3.70
2019-02-02T02:19:05.891Z,3.60
2019-02-02T02:21:35.266Z,3.60
2019-02-02T02:24:04.848Z,3.50
2019-02-02T02:26:34.224Z,3.50
2019-02-02T02:29:03.596Z,3.50
2019-02-02T02:31:32.931Z,3.50
2019-02-02T02:34:02.303Z,3.60
2019-02-02T02:36:31.779Z,3.60
2019-02-02T02:39:01.286Z,3.60
2019-02-02T02:41:30.749Z,3.70
2019-02-02T02:44:00.114Z,3.70
2019-02-02T02:46:29.481Z,3.80
2019-02-02T02:48:58.953Z,3.80
2019-02-02T02:51:28.338Z,3.80
2019-02-02T02:53:57.708Z,3.90
2019-02-02T02:56:27.048Z,3.90
2019-02-02T02:58:56.460Z,3.90
2019-02-02T03:01:25.782Z,3.90
2019-02-02T03:03:55.157Z,3.90
2019-02-02T03:06:24.536Z,3.90
2019-02-02T03:08:53.999Z,3.90
2019-02-02T03:11:23.370Z,3.90
2019-02-02T03:13:52.701Z,3.90
2019-02-02T03:16:22.064Z,3.90
2019-02-02T03:18:51.500Z,3.80
2019-02-02T03:21:20.855Z,3.80
2019-02-02T03:23:50.237Z,3.70
2019-02-02T03:26:19.565Z,3.70
2019-02-02T03:28:53.643Z,3.50
2019-02-02T03:31:19.992Z,3.50
2019-02-02T03:33:49.351Z,3.40
2019-02-02T03:36:18.732Z,3.30
2019-02-02T03:38:48.195Z,3.30
2019-02-02T03:41:17.526Z,3.30
2019-02-02T03:43:46.852Z,3.30
2019-02-02T03:46:16.170Z,3.20
2019-02-02T03:48:45.471Z,3.10
2019-02-02T03:51:14.874Z,3.10
2019-02-02T03:53:44.163Z,3.10
2019-02-02T03:56:13.546Z,3.10
2019-02-02T03:58:42.859Z,3.10
2019-02-02T04:01:12.376Z,3.10
2019-02-02T04:03:41.798Z,3.20
2019-02-02T04:06:11.499Z,3.20
2019-02-02T04:08:40.866Z,3.20
2019-02-02T04:11:10.395Z,3.30
2019-02-02T04:13:39.823Z,3.30
2019-02-02T04:16:09.252Z,3.30
2019-02-02T04:18:38.942Z,3.30
2019-02-02T04:21:08.285Z,3.30
2019-02-02T04:23:37.652Z,3.30
2019-02-02T04:26:07.000Z,3.20
2019-02-02T04:28:36.348Z,3.20
2019-02-02T04:31:05.761Z,3.20
2019-02-02T04:33:35.099Z,3.30
2019-02-02T04:36:04.534Z,3.30
2019-02-02T04:38:33.906Z,3.20
2019-02-02T04:41:03.229Z,3.30
2019-02-02T04:43:32.610Z,3.30
2019-02-02T04:46:01.952Z,3.30
2019-02-02T04:48:32.542Z,3.30
2019-02-02T04:51:02.013Z,3.20
2019-02-02T04:53:31.333Z,3.30
2019-02-02T04:56:00.640Z,3.30
2019-02-02T04:58:30.043Z,3.40
2019-02-02T05:00:59.424Z,3.40
2019-02-02T05:03:28.854Z,3.40
2019-02-02T05:05:58.191Z,3.50
2019-02-02T05:08:27.520Z,3.50
2019-02-02T05:10:56.876Z,3.60
2019-02-02T05:13:26.215Z,3.60
2019-02-02T05:15:55.564Z,3.50
2019-02-02T05:18:25.112Z,3.50
2019-02-02T05:20:54.508Z,3.50
2019-02-02T05:23:23.894Z,3.40
2019-02-02T05:25:53.283Z,3.40
2019-02-02T05:28:22.631Z,3.40
2019-02-02T05:30:52.013Z,3.30
2019-02-02T05:33:21.444Z,3.30
2019-02-02T05:35:50.793Z,3.30
2019-02-02T05:38:20.351Z,3.30
2019-02-02T05:40:49.798Z,3.20
2019-02-02T05:43:19.222Z,3.20
2019-02-02T05:45:48.711Z,3.10
2019-02-02T05:48:18.042Z,3.10
2019-02-02T05:50:47.529Z,3.10
2019-02-02T05:53:16.854Z,3.10
2019-02-02T05:55:46.275Z,3.10
2019-02-02T05:58:15.573Z,3.10
2019-02-02T06:00:50.591Z,3.10
2019-02-02T06:03:20.100Z,3.10
2019-02-02T06:05:49.576Z,3.10
2019-02-02T06:08:18.935Z,3.20
2019-02-02T06:10:48.488Z,3.20
2019-02-02T06:13:17.833Z,3.20
2019-02-02T06:15:47.252Z,3.20
2019-02-02T06:18:16.683Z,3.20
2019-02-02T06:20:46.027Z,3.20
2019-02-02T06:23:15.376Z,3.20
2019-02-02T06:25:44.790Z,3.10
2019-02-02T06:28:14.091Z,3.20
2019-02-02T06:30:43.967Z,3.10
2019-02-02T06:33:13.312Z,3.20
2019-02-02T06:35:42.691Z,3.20
2019-02-02T06:38:12.105Z,3.20
2019-02-02T06:40:41.768Z,3.30
2019-02-02T06:43:11.129Z,3.30
2019-02-02T06:45:40.492Z,3.30
2019-02-02T06:48:09.827Z,3.20
2019-02-02T06:50:39.271Z,3.20
2019-02-02T06:53:08.686Z,3.30
2019-02-02T06:55:37.988Z,3.30
2019-02-02T06:58:07.320Z,3.30
2019-02-02T07:00:36.752Z,3.30
2019-02-02T07:03:06.103Z,3.30
2019-02-02T07:05:35.448Z,3.30
2019-02-02T07:08:04.886Z,3.30
2019-02-02T07:10:34.404Z,3.30
2019-02-02T07:13:03.832Z,3.30
2019-02-02T07:15:33.151Z,3.30
2019-02-02T07:18:02.583Z,3.40
2019-02-02T07:20:32.007Z,3.50
2019-02-02T07:23:01.384Z,3.60
2019-02-02T07:25:30.740Z,3.60
2019-02-02T07:28:00.160Z,3.70
2019-02-02T07:30:29.964Z,3.70
2019-02-02T07:32:59.460Z,3.80
2019-02-02T07:35:29.013Z,3.80
2019-02-02T07:37:58.452Z,3.90
2019-02-02T07:40:27.954Z,3.90
2019-02-02T07:42:57.506Z,3.90
2019-02-02T07:45:29.106Z,4.00
2019-02-02T07:47:58.481Z,4.00
2019-02-02T07:50:28.161Z,4.00
2019-02-02T07:52:57.511Z,4.00
2019-02-02T07:55:27.084Z,4.00
2019-02-02T07:57:56.453Z,4.10
2019-02-02T08:00:40.297Z,4.10
2019-02-02T08:03:02.674Z,4.10
2019-02-02T08:05:32.323Z,4.00
2019-02-02T08:08:01.669Z,4.00
2019-02-02T08:10:31.165Z,4.00
2019-02-02T08:13:00.536Z,3.90
2019-02-02T08:15:31.452Z,3.90
2019-02-02T08:18:00.825Z,3.90
2019-02-02T08:20:30.236Z,3.90
2019-02-02T08:22:59.616Z,3.90
2019-02-02T08:25:29.052Z,3.80
2019-02-02T08:27:58.532Z,3.80
2019-02-02T08:30:30.037Z,3.80
2019-02-02T08:32:59.589Z,3.90
2019-02-02T08:35:29.162Z,4.00
2019-02-02T08:37:58.520Z,4.00
2019-02-02T08:40:28.111Z,4.00
2019-02-02T08:42:57.533Z,4.00
2019-02-02T08:45:26.995Z,4.00
2019-02-02T08:47:56.433Z,4.00
2019-02-02T08:50:31.256Z,4.10
2019-02-02T08:53:00.782Z,4.10
2019-02-02T08:55:30.213Z,4.10
2019-02-02T08:57:59.626Z,4.20
2019-02-02T09:00:29.182Z,4.30
2019-02-02T09:02:58.546Z,4.30
2019-02-02T09:05:27.942Z,4.40
2019-02-02T09:07:57.285Z,4.40
2019-02-02T09:10:28.035Z,4.40
2019-02-02T09:12:57.838Z,4.40
2019-02-02T09:15:27.619Z,4.40
2019-02-02T09:17:57.075Z,4.40
2019-02-02T09:20:26.443Z,4.40
2019-02-02T09:23:04.221Z,4.40
2019-02-02T09:25:27.121Z,4.40
2019-02-02T09:27:56.701Z,4.40
2019-02-02T09:30:34.185Z,4.40
2019-02-02T09:33:03.785Z,4.40
2019-02-02T09:35:33.343Z,4.50
2019-02-02T09:38:02.839Z,4.50
2019-02-02T09:40:32.304Z,4.50
2019-02-02T09:43:01.716Z,4.60
2019-02-02T09:45:31.112Z,4.60
2019-02-02T09:48:00.718Z,4.70
2019-02-02T09:50:30.164Z,4.80
2019-02-02T09:52:59.587Z,4.80
2019-02-02T09:55:28.990Z,4.80
2019-02-02T09:58:01.473Z,4.80
2019-02-02T10:00:31.741Z,4.80
2019-02-02T10:03:01.210Z,4.80
2019-02-02T10:05:31.287Z,4.90
2019-02-02T10:08:00.824Z,4.80
2019-02-02T10:10:31.968Z,4.70
2019-02-02T10:13:01.284Z,4.70
2019-02-02T10:15:30.641Z,4.70
2019-02-02T10:18:00.088Z,4.80
2019-02-02T10:20:30.266Z,4.80
2019-02-02T10:23:00.136Z,4.80
2019-02-02T10:25:30.671Z,4.90
2019-02-02T10:28:00.094Z,4.90
2019-02-02T10:30:37.584Z,4.80
2019-02-02T10:33:07.258Z,4.80
2019-02-02T10:35:36.715Z,4.70
2019-02-02T10:38:06.588Z,4.70
2019-02-02T10:40:36.267Z,4.80
2019-02-02T10:43:05.975Z,4.80
2019-02-02T10:45:35.499Z,4.90
2019-02-02T10:48:05.283Z,5.10
2019-02-02T10:50:34.873Z,5.10
2019-02-02T10:53:04.288Z,5.10
2019-02-02T10:55:33.799Z,5.20
2019-02-02T10:58:03.188Z,5.10
2019-02-02T11:00:34.051Z,5.00
2019-02-02T11:03:03.706Z,5.20
2019-02-02T11:05:33.282Z,5.20
2019-02-02T11:08:03.069Z,5.30
2019-02-02T11:10:33.128Z,5.30
2019-02-02T11:13:02.859Z,5.30
2019-02-02T11:15:32.243Z,5.10
2019-02-02T11:18:01.977Z,5.20
2019-02-02T11:20:32.991Z,5.20
2019-02-02T11:23:02.517Z,5.30
2019-02-02T11:25:32.100Z,5.20
2019-02-02T11:28:01.597Z,5.30
2019-02-02T11:30:31.638Z,5.40
2019-02-02T11:33:01.087Z,5.30
2019-02-02T11:35:30.583Z,5.30
2019-02-02T11:38:00.130Z,5.20
2019-02-02T11:40:31.146Z,5.20
2019-02-02T11:43:01.127Z,5.10
2019-02-02T11:45:30.709Z,5.10
2019-02-02T11:48:00.088Z,5.00
2019-02-02T11:50:29.741Z,5.00
2019-02-02T11:52:59.271Z,4.90
2019-02-02T11:55:28.945Z,4.90
2019-02-02T11:57:58.482Z,4.80
2019-02-02T12:00:29.752Z,4.80
2019-02-02T12:02:59.637Z,4.70
2019-02-02T12:05:29.136Z,4.70
2019-02-02T12:07:58.492Z,4.50
2019-02-02T12:10:28.553Z,4.50
2019-02-02T12:12:57.922Z,4.40
2019-02-02T12:15:27.478Z,4.40
2019-02-02T12:17:56.971Z,4.40
2019-02-02T12:20:26.504Z,4.40
2019-02-02T12:22:55.949Z,4.40
2019-02-02T12:25:25.454Z,4.30
2019-02-02T12:27:55.226Z,4.30
2019-02-02T12:30:27.224Z,4.20
2019-02-02T12:32:56.916Z,4.10
2019-02-02T12:35:26.794Z,4.10
2019-02-02T12:37:56.410Z,4.00
2019-02-02T12:40:26.182Z,4.00
2019-02-02T12:42:55.796Z,4.00
2019-02-02T12:45:28.131Z,4.00
2019-02-02T12:47:57.656Z,3.90
2019-02-02T12:50:27.074Z,4.10
2019-02-02T12:52:59.241Z,4.10
2019-02-02T12:55:28.648Z,4.00
2019-02-02T12:57:58.350Z,4.10
2019-02-02T13:00:27.875Z,3.90
2019-02-02T13:02:57.470Z,3.80
2019-02-02T13:05:27.148Z,3.90
2019-02-02T13:07:56.527Z,3.80
2019-02-02T13:10:26.898Z,3.70
2019-02-02T13:12:56.375Z,3.60
2019-02-02T13:15:25.825Z,3.50
2019-02-02T13:17:55.336Z,3.50
2019-02-02T13:20:24.903Z,3.50
2019-02-02T13:22:54.378Z,3.50
2019-02-02T13:25:23.996Z,3.40
2019-02-02T13:27:53.422Z,3.50
2019-02-02T13:30:31.436Z,3.50
2019-02-02T13:33:00.980Z,3.60
2019-02-02T13:35:31.675Z,3.50
2019-02-02T13:38:01.131Z,3.60
2019-02-02T13:40:30.581Z,3.60
2019-02-02T13:43:00.221Z,3.70
2019-02-02T13:45:29.654Z,3.70
2019-02-02T13:47:59.002Z,3.70
2019-02-02T13:50:28.460Z,3.70
2019-02-02T13:52:57.872Z,3.70
2019-02-02T13:55:27.335Z,3.70
2019-02-02T13:57:56.753Z,3.60
2019-02-02T14:00:28.299Z,3.60
2019-02-02T14:03:02.820Z,3.40
2019-02-02T14:05:29.015Z,3.40
2019-02-02T14:08:00.284Z,3.40
2019-02-02T14:10:30.687Z,3.50
2019-02-02T14:13:00.053Z,3.50
2019-02-02T14:15:29.488Z,3.50
2019-02-02T14:17:58.953Z,3.40
2019-02-02T14:20:28.372Z,3.40
2019-02-02T14:22:58.013Z,3.30
2019-02-02T14:25:27.540Z,3.30
2019-02-02T14:27:57.082Z,3.30
2019-02-02T14:30:26.852Z,3.20
2019-02-02T14:32:56.281Z,3.20
2019-02-02T14:35:27.075Z,3.20
2019-02-02T14:37:56.483Z,3.20
2019-02-02T14:40:25.863Z,3.20
2019-02-02T14:42:55.282Z,3.00
2019-02-02T14:45:27.354Z,3.00
2019-02-02T14:47:56.504Z,3.00
2019-02-02T14:50:26.247Z,2.90
2019-02-02T14:52:55.890Z,2.90
2019-02-02T14:55:27.237Z,2.90
2019-02-02T14:57:56.822Z,2.90
2019-02-02T15:00:29.889Z,2.90
2019-02-02T15:03:00.101Z,2.90
2019-02-02T15:05:42.166Z,2.90
2019-02-02T15:08:02.287Z,2.90
2019-02-02T15:10:32.099Z,2.80
2019-02-02T15:13:01.858Z,2.70
2019-02-02T15:15:31.595Z,2.70
2019-02-02T15:18:01.070Z,2.80
2019-02-02T15:20:38.161Z,2.70
2019-02-02T15:23:11.935Z,2.70
2019-02-02T15:25:42.544Z,2.60
2019-02-02T15:28:12.238Z,2.60
2019-02-02T15:30:46.220Z,2.60
2019-02-02T15:33:16.842Z,2.60
2019-02-02T15:35:46.445Z,2.60
2019-02-02T15:38:18.790Z,2.60
2019-02-02T15:40:58.477Z,2.50
2019-02-02T15:43:18.172Z,2.50
2019-02-02T15:45:47.658Z,2.60
2019-02-02T15:48:17.087Z,2.60
2019-02-02T15:50:46.516Z,2.60
2019-02-02T15:53:15.999Z,2.50
2019-02-02T15:55:45.455Z,2.50
2019-02-02T15:58:14.901Z,2.50
2019-02-02T16:00:44.367Z,2.50
2019-02-02T16:03:13.798Z,2.40
2019-02-02T16:05:43.243Z,2.40
2019-02-02T16:08:16.565Z,2.40
2019-02-02T16:10:46.200Z,2.40
2019-02-02T16:13:15.631Z,2.40
2019-02-02T16:15:45.121Z,2.40
2019-02-02T16:18:14.558Z,2.40
2019-02-02T16:20:45.191Z,2.30
2019-02-02T16:23:14.729Z,2.40
2019-02-02T16:25:44.155Z,2.40
2019-02-02T16:28:13.726Z,2.50
2019-02-02T16:30:43.411Z,2.60
2019-02-02T16:33:12.967Z,2.60
2019-02-02T16:35:42.569Z,2.60
2019-02-02T16:38:12.092Z,2.60
2019-02-02T16:40:41.625Z,2.50
2019-02-02T16:43:11.073Z,2.50
2019-02-02T16:45:40.519Z,2.40
2019-02-02T16:48:09.927Z,2.30
2019-02-02T16:50:39.341Z,2.30
2019-02-02T16:53:08.888Z,2.40
2019-02-02T16:55:38.530Z,2.40
2019-02-02T16:58:08.184Z,2.50
2019-02-02T17:00:38.386Z,2.40
2019-02-02T17:03:07.944Z,2.50
2019-02-02T17:05:37.308Z,2.50
2019-02-02T17:08:06.955Z,2.40
2019-02-02T17:10:40.468Z,2.40
2019-02-02T17:13:10.040Z,2.50
2019-02-02T17:15:39.504Z,2.60
2019-02-02T17:18:08.906Z,2.60
2019-02-02T17:20:40.701Z,2.60
2019-02-02T17:23:10.164Z,2.60
2019-02-02T17:25:39.666Z,2.60
2019-02-02T17:28:09.391Z,2.60
2019-02-02T17:30:39.174Z,2.50
2019-02-02T17:33:10.858Z,2.40
2019-02-02T17:35:40.349Z,2.40
2019-02-02T17:38:09.735Z,2.40
2019-02-02T17:40:39.284Z,2.40
2019-02-02T17:43:10.760Z,2.40
2019-02-02T17:45:40.408Z,2.30
2019-02-02T17:48:12.906Z,2.40
2019-02-02T17:50:41.269Z,2.40
2019-02-02T17:53:10.806Z,2.50
2019-02-02T17:55:40.318Z,2.40
2019-02-02T17:58:09.836Z,2.40
2019-02-02T18:00:47.576Z,2.40
2019-02-02T18:03:16.910Z,2.40
2019-02-02T18:05:46.435Z,2.40
2019-02-02T18:08:15.778Z,2.40
2019-02-02T18:10:45.256Z,2.40
2019-02-02T18:13:14.841Z,2.30
2019-02-02T18:15:44.224Z,2.40
2019-02-02T18:18:13.714Z,2.40
2019-02-02T18:20:43.212Z,2.50
2019-02-02T18:23:12.722Z,2.50
2019-02-02T18:25:42.222Z,2.50
2019-02-02T18:28:11.758Z,2.60
2019-02-02T18:30:41.186Z,2.50
2019-02-02T18:33:10.704Z,2.50
2019-02-02T18:35:40.326Z,2.50
2019-02-02T18:38:09.719Z,2.50
2019-02-02T18:40:40.086Z,2.50
2019-02-02T18:43:09.655Z,2.50
2019-02-02T18:45:39.058Z,2.50
2019-02-02T18:48:08.689Z,2.40
2019-02-02T18:50:38.178Z,2.40
2019-02-02T18:53:07.645Z,2.40
2019-02-02T18:55:57.647Z,2.40
2019-02-02T18:58:27.123Z,2.40
2019-02-02T19:00:56.558Z,2.40
2019-02-02T19:03:25.997Z,2.40
2019-02-02T19:05:55.351Z,2.40
2019-02-02T19:08:24.899Z,2.40
2019-02-02T19:10:54.341Z,2.40
2019-02-02T19:15:58.667Z,2.50
2019-02-02T19:18:28.084Z,2.50
2019-02-02T19:20:57.485Z,2.50
2019-02-02T19:23:26.949Z,2.50
2019-02-02T19:25:56.463Z,2.50
2019-02-02T19:28:28.255Z,2.50
2019-02-02T19:30:56.935Z,2.50
2019-02-02T19:33:26.363Z,2.60
2019-02-02T19:35:55.871Z,2.60
2019-02-02T19:38:25.381Z,2.60
2019-02-02T19:40:54.808Z,2.60
2019-02-02T19:43:24.161Z,2.60
2019-02-02T19:45:53.786Z,2.50
2019-02-02T19:48:23.373Z,2.60
2019-02-02T19:50:52.766Z,2.50
2019-02-02T19:53:22.230Z,2.60
2019-02-02T19:55:51.664Z,2.50
2019-02-02T19:58:21.176Z,2.50
2019-02-02T20:00:50.566Z,2.50
2019-02-02T20:03:19.972Z,2.50
2019-02-02T20:05:49.526Z,2.50
2019-02-02T20:08:18.987Z,2.40
2019-02-02T20:10:48.490Z,2.40
2019-02-02T20:13:19.598Z,2.40
2019-02-02T20:15:49.197Z,2.30
2019-02-02T20:18:18.614Z,2.30
2019-02-02T20:20:48.060Z,2.30
2019-02-02T20:23:17.517Z,2.30
2019-02-02T20:25:47.069Z,2.30
2019-02-02T20:28:16.590Z,2.30
2019-02-02T20:30:46.030Z,2.30
2019-02-02T20:33:15.452Z,2.30
2019-02-02T20:35:44.941Z,2.30
2019-02-02T20:38:14.386Z,2.30
2019-02-02T20:40:43.906Z,2.30
2019-02-02T20:43:13.348Z,2.30
2019-02-02T20:45:42.822Z,2.30
2019-02-02T20:48:12.329Z,2.30
2019-02-02T20:50:41.851Z,2.30
2019-02-02T20:53:11.199Z,2.30
2019-02-02T20:55:42.831Z,2.30
2019-02-02T20:58:12.197Z,2.30
2019-02-02T21:00:41.633Z,2.40
2019-02-02T21:03:11.144Z,2.40
2019-02-02T21:05:51.594Z,2.40
2019-02-02T21:08:11.765Z,2.40
2019-02-02T21:10:41.218Z,2.30
2019-02-02T21:13:12.670Z,2.30
2019-02-02T21:15:42.851Z,2.20
2019-02-02T21:18:12.304Z,2.20
2019-02-02T21:20:41.845Z,2.20
2019-02-02T21:23:11.461Z,2.20
2019-02-02T21:25:41.000Z,2.30
2019-02-02T21:28:10.481Z,2.20
2019-02-02T21:30:39.928Z,2.20
2019-02-02T21:33:09.521Z,2.20
2019-02-02T21:35:38.989Z,2.20
2019-02-02T21:38:08.466Z,2.30
2019-02-02T21:40:37.991Z,2.30
2019-02-02T21:43:08.804Z,2.30
2019-02-02T21:45:38.444Z,2.30
2019-02-02T21:48:08.280Z,2.30
2019-02-02T21:50:37.754Z,2.30
2019-02-02T21:53:07.205Z,2.30
2019-02-02T21:55:36.651Z,2.30
2019-02-02T21:58:06.253Z,2.30
2019-02-02T22:00:37.827Z,2.30
2019-02-02T22:03:07.999Z,2.30
2019-02-02T22:05:37.754Z,2.30
2019-02-02T22:08:08.570Z,2.30
2019-02-02T22:10:38.325Z,2.30
2019-02-02T22:13:10.644Z,2.20
2019-02-02T22:15:40.129Z,2.30
2019-02-02T22:18:09.636Z,2.30
2019-02-02T22:20:39.119Z,2.30
2019-02-02T22:23:09.069Z,2.30
2019-02-02T22:25:38.583Z,2.30
2019-02-02T22:28:08.375Z,2.20
2019-02-02T22:30:38.284Z,2.30
2019-02-02T22:33:07.925Z,2.20
2019-02-02T22:35:37.652Z,2.20
2019-02-02T22:38:07.076Z,2.20
2019-02-02T22:40:36.432Z,2.20
2019-02-02T22:43:06.171Z,2.30
2019-02-02T22:45:35.641Z,2.30
2019-02-02T22:48:06.192Z,2.20
2019-02-02T22:50:35.650Z,2.20
2019-02-02T22:53:05.329Z,2.20
2019-02-02T22:55:34.909Z,2.20
2019-02-02T22:58:06.811Z,2.20
2019-02-02T23:01:11.949Z,2.30
2019-02-02T23:04:31.593Z,2.30
2019-02-02T23:07:43.919Z,2.40
2019-02-02T23:10:57.330Z,2.30
2019-02-02T23:14:04.983Z,2.30
2019-02-02T23:16:34.831Z,2.30
2019-02-02T23:19:04.683Z,2.30
2019-02-02T23:21:34.117Z,2.30
2019-02-02T23:24:03.647Z,2.30
2019-02-02T23:26:33.070Z,2.20
2019-02-02T23:29:02.591Z,2.20
2019-02-02T23:31:32.020Z,2.20
2019-02-02T23:34:01.667Z,2.20
2019-02-02T23:36:31.300Z,2.20
2019-02-02T23:39:00.875Z,2.20
2019-02-02T23:41:30.399Z,2.20
2019-02-02T23:44:00.023Z,2.30
2019-02-02T23:46:29.438Z,2.30
2019-02-02T23:49:00.532Z,2.30
2019-02-02T23:51:29.871Z,2.20
2019-02-02T23:53:59.861Z,2.30
2019-02-02T23:56:29.614Z,2.30
2019-02-02T23:58:59.029Z,2.20
